Time;durP1;ratioP1;P1;durP2;ratioP2;P2;SDS_P1;SDS_P2;PMS_P1;PMS_P2;Temp;Humidity;BMP_temperature;BMP_pressure;BME280_temperature;BME280_humidity;BME280_pressure;Samples;Min_cycle;Max_cycle;Signal;HPM_P1;HPM_P2
2022/08/06 00:02:38;;;;;;;7.13;6.23;;;;;;;23.92;53.48;96839.25;6174193;23;20643;-76
2022/08/06 00:05:08;;;;;;;6.40;5.70;;;;;;;23.99;53.21;96834.97;6174113;22;20164;-76
2022/08/06 00:07:44;;;;;;;10.57;8.40;;;;;;;23.99;53.20;96832.31;6174236;23;20169;-74
2022/08/06 00:10:18;;;;;;;10.07;9.17;;;;;;;24.01;53.46;96830.34;6174226;22;20243;-77
2022/08/06 00:13:00;;;;;;;9.77;8.50;;;;;;;24.01;53.13;96824.22;6173716;22;20270;-77
2022/08/06 00:15:31;;;;;;;8.50;7.57;;;;;;;23.76;53.70;96822.44;6174248;22;20192;-76
2022/08/06 00:18:18;;;;;;;8.87;7.33;;;;;;;23.29;55.09;96828.03;6173953;22;20627;-74
2022/08/06 00:20:46;;;;;;;9.47;6.60;;;;;;;23.15;55.67;96825.94;6173875;22;20195;-76
2022/08/06 00:23:17;;;;;;;8.23;6.17;;;;;;;23.33;55.89;96823.28;6174678;22;20175;-77
2022/08/06 00:25:45;;;;;;;6.70;5.60;;;;;;;23.47;55.02;96825.41;6173836;22;20616;-76
2022/08/06 00:28:23;;;;;;;8.30;6.23;;;;;;;23.67;54.79;96829.50;6174686;22;20209;-77
2022/08/06 00:31:04;;;;;;;5.30;4.67;;;;;;;23.59;54.73;96829.44;6174322;22;20172;-77
2022/08/06 00:33:38;;;;;;;6.53;5.23;;;;;;;23.56;54.78;96819.16;6174025;22;20612;-77
2022/08/06 00:36:24;;;;;;;6.03;4.73;;;;;;;23.63;54.46;96827.31;6277783;22;20238;-77
2022/08/06 00:38:58;;;;;;;5.40;4.90;;;;;;;23.79;54.68;96835.34;6173599;22;20164;-74
2022/08/06 00:41:28;;;;;;;8.53;5.20;;;;;;;23.79;54.44;96840.63;6173998;22;20606;-76
2022/08/06 00:44:07;;;;;;;5.90;4.57;;;;;;;23.85;53.70;96832.91;6173958;22;20167;-77
2022/08/06 00:46:38;;;;;;;6.00;5.13;;;;;;;23.91;54.04;96834.06;6173268;22;20176;-76
2022/08/06 00:49:06;;;;;;;6.23;5.57;;;;;;;23.69;54.51;96830.16;6174424;22;20175;-70
2022/08/06 00:51:39;;;;;;;6.00;5.40;;;;;;;23.61;54.85;96827.47;6173771;22;20164;-75
2022/08/06 00:54:21;;;;;;;6.30;5.80;;;;;;;23.44;55.35;96831.81;6174700;22;20182;-75
2022/08/06 00:57:04;;;;;;;6.50;5.57;;;;;;;23.22;56.61;96831.44;6174485;22;20272;-72
2022/08/06 00:59:36;;;;;;;5.87;5.27;;;;;;;22.80;58.42;96838.31;6272722;22;20170;-76
2022/08/06 01:02:04;;;;;;;7.47;5.37;;;;;;;22.65;59.07;96838.00;6174418;22;20240;-72
2022/08/06 01:04:44;;;;;;;6.57;5.90;;;;;;;22.37;60.51;96834.53;6173795;22;20171;-74
2022/08/06 01:07:12;;;;;;;6.83;5.90;;;;;;;22.19;61.06;96840.75;6174206;23;20174;-75
2022/08/06 01:09:41;;;;;;;6.63;5.27;;;;;;;22.15;60.68;96828.81;6277416;22;20522;-75
2022/08/06 01:12:27;;;;;;;5.97;5.40;;;;;;;21.95;61.23;96833.34;6277320;22;20298;-76
2022/08/06 01:15:02;;;;;;;7.33;5.60;;;;;;;21.75;61.25;96840.47;6173999;22;20171;-75
2022/08/06 01:17:41;;;;;;;7.73;5.30;;;;;;;21.73;61.50;96839.78;6173857;22;20169;-75
2022/08/06 01:20:20;;;;;;;6.70;5.50;;;;;;;21.53;61.57;96805.72;6174524;22;20698;-77
2022/08/06 01:23:16;;;;;;;7.27;5.67;;;;;;;21.86;60.91;96836.88;6174261;22;20268;-76
2022/08/06 01:26:11;;;;;;;6.70;6.10;;;;;;;21.81;60.63;96832.00;6174057;22;20255;-78
2022/08/06 01:28:58;;;;;;;8.63;6.20;;;;;;;21.55;62.08;96838.88;6174972;22;20224;-78
2022/08/06 01:31:36;;;;;;;7.10;6.13;;;;;;;21.47;62.30;96837.91;6173761;23;20493;-77
2022/08/06 01:34:13;;;;;;;7.03;5.73;;;;;;;21.50;62.17;96840.25;6173561;22;20312;-73
2022/08/06 01:36:46;;;;;;;11.43;6.10;;;;;;;21.53;62.13;96837.34;6174009;22;20247;-77
2022/08/06 01:39:17;;;;;;;8.07;6.67;;;;;;;21.40;62.83;96831.53;6173249;22;20165;-77
2022/08/06 01:42:05;;;;;;;7.10;6.30;;;;;;;21.20;62.90;96825.47;6174036;22;20488;-77
2022/08/06 01:44:37;;;;;;;9.67;6.70;;;;;;;21.24;63.29;96836.56;6276387;22;20500;-76
2022/08/06 01:47:12;;;;;;;9.20;6.83;;;;;;;21.12;63.53;96827.13;6173657;22;20242;-78
2022/08/06 01:49:47;;;;;;;7.73;6.93;;;;;;;21.14;63.78;96820.78;6274572;22;20250;-78
2022/08/06 01:52:37;;;;;;;9.07;7.57;;;;;;;21.23;63.10;96816.44;6173903;22;20243;-76
2022/08/06 01:55:10;;;;;;;8.00;7.20;;;;;;;21.28;63.19;96817.69;6173276;22;20263;-78
2022/08/06 01:57:44;;;;;;;8.20;7.20;;;;;;;21.23;63.28;96817.28;6277642;22;20279;-77
2022/08/06 02:00:36;;;;;;;10.77;7.63;;;;;;;21.19;63.17;96797.47;6175160;22;20171;-76
2022/08/06 02:03:10;;;;;;;8.57;7.70;;;;;;;21.24;63.20;96807.56;6175345;22;20217;-76
2022/08/06 02:05:45;;;;;;;9.77;7.70;;;;;;;21.30;63.32;96807.84;6278972;22;20162;-78
2022/08/06 02:08:22;;;;;;;9.37;8.17;;;;;;;21.41;62.83;96801.59;6304904;22;20162;-75
2022/08/06 02:11:07;;;;;;;9.10;7.90;;;;;;;21.38;62.74;96799.22;6175131;22;20225;-77
2022/08/06 02:13:56;;;;;;;8.93;7.77;;;;;;;21.23;63.42;96808.53;6174780;22;20639;-77
2022/08/06 02:16:26;;;;;;;9.93;7.97;;;;;;;21.21;63.51;96806.03;6175274;22;20217;-78
2022/08/06 02:18:55;;;;;;;9.97;8.10;;;;;;;21.07;63.46;96795.94;6175210;22;20160;-78
2022/08/06 02:21:23;;;;;;;8.47;7.57;;;;;;;21.24;63.65;96802.31;6174753;22;20167;-76
2022/08/06 02:24:02;;;;;;;9.53;7.40;;;;;;;21.41;62.88;96807.66;6175027;23;20167;-77
2022/08/06 02:26:31;;;;;;;9.80;8.87;;;;;;;21.32;62.97;96802.44;6174617;22;20176;-76
2022/08/06 02:29:01;;;;;;;8.57;7.67;;;;;;;21.36;62.78;96803.81;6175338;22;20171;-78
2022/08/06 02:31:28;;;;;;;7.90;7.10;;;;;;;21.43;62.94;96804.91;6175029;22;20268;-76
2022/08/06 02:34:13;;;;;;;7.93;7.13;;;;;;;21.37;62.89;96795.75;6261946;22;20519;-77
2022/08/06 02:36:49;;;;;;;8.03;6.93;;;;;;;21.51;62.37;96812.94;6174990;22;20163;-75
2022/08/06 02:39:48;;;;;;;8.27;7.27;;;;;;;21.60;62.22;96806.78;6174791;22;20166;-75
2022/08/06 02:42:21;;;;;;;9.57;6.97;;;;;;;21.77;61.44;96804.25;6175634;22;20165;-73
2022/08/06 02:45:09;;;;;;;8.30;7.17;;;;;;;21.58;61.97;96800.81;6174716;22;20169;-76
2022/08/06 02:47:49;;;;;;;10.47;7.73;;;;;;;21.55;61.96;96798.50;6174879;22;20176;-75
2022/08/06 02:50:40;;;;;;;9.83;7.57;;;;;;;21.39;62.64;96799.06;6174827;22;20646;-77
2022/08/06 02:53:10;;;;;;;9.40;6.70;;;;;;;21.52;62.29;96801.41;6174505;22;20544;-77
2022/08/06 02:55:55;;;;;;;7.97;7.17;;;;;;;21.63;61.98;96801.25;6304408;22;20663;-78
2022/08/06 02:58:38;;;;;;;9.27;7.10;;;;;;;21.72;61.74;96795.13;6174727;22;20180;-74
2022/08/06 03:01:19;;;;;;;9.23;7.60;;;;;;;21.64;61.87;96792.34;6174732;22;20635;-77
2022/08/06 03:03:51;;;;;;;10.77;6.93;;;;;;;21.41;62.59;96791.06;6175241;22;20528;-77
2022/08/06 03:06:34;;;;;;;10.23;7.30;;;;;;;21.04;63.32;96772.56;6174590;22;20160;-74
2022/08/06 03:09:05;;;;;;;7.77;6.97;;;;;;;20.88;64.51;96798.56;6148605;22;20180;-76
2022/08/06 03:11:35;;;;;;;8.70;6.70;;;;;;;20.88;64.38;96799.41;6174625;22;20213;-76
2022/08/06 03:14:06;;;;;;;7.70;6.70;;;;;;;20.69;65.43;96793.31;6174150;22;20196;-77
2022/08/06 03:16:54;;;;;;;8.67;7.40;;;;;;;20.73;65.49;96790.25;6174991;22;20250;-77
2022/08/06 03:19:27;;;;;;;13.00;8.53;;;;;;;20.63;65.78;96789.41;6174203;22;20168;-71
2022/08/06 03:22:16;;;;;;;10.43;7.53;;;;;;;20.69;65.79;96793.31;6174503;22;20175;-74
2022/08/06 03:25:06;;;;;;;8.63;7.70;;;;;;;20.69;65.80;96791.50;6175000;22;20561;-76
2022/08/06 03:27:37;;;;;;;7.63;6.83;;;;;;;20.76;65.90;96797.03;6174255;22;20163;-75
2022/08/06 03:30:18;;;;;;;7.80;7.00;;;;;;;20.71;66.16;96800.06;6174824;22;20170;-72
2022/08/06 03:33:07;;;;;;;7.43;6.13;;;;;;;20.97;65.04;96803.00;6174593;22;20267;-76
2022/08/06 03:35:58;;;;;;;7.30;6.23;;;;;;;21.13;64.27;96794.53;6259799;22;20249;-76
2022/08/06 03:38:31;;;;;;;7.07;6.37;;;;;;;21.35;63.87;96791.63;6175400;22;20163;-77
2022/08/06 03:41:00;;;;;;;7.70;6.63;;;;;;;21.47;63.44;96804.50;6174228;22;20164;-77
2022/08/06 03:43:29;;;;;;;7.77;6.43;;;;;;;21.64;62.62;96793.19;6174696;22;20172;-78
2022/08/06 03:46:23;;;;;;;6.27;5.67;;;;;;;21.81;62.16;96794.22;6174645;22;20164;-76
2022/08/06 03:48:54;;;;;;;13.60;6.07;;;;;;;22.05;61.28;96799.84;6174233;22;20175;-71
2022/08/06 03:51:25;;;;;;;9.13;6.57;;;;;;;21.96;61.53;96803.38;6174761;22;20169;-77
2022/08/06 03:54:15;;;;;;;6.80;6.10;;;;;;;22.02;61.10;96808.06;6173724;22;20228;-74
2022/08/06 03:57:01;;;;;;;7.20;6.37;;;;;;;21.95;61.46;96804.31;6174248;22;20163;-72
2022/08/06 03:59:38;;;;;;;8.93;6.60;;;;;;;22.03;60.72;96798.34;6174662;22;20548;-71
2022/08/06 04:02:27;;;;;;;6.27;5.67;;;;;;;22.01;61.04;96811.66;6174271;22;20593;-74
2022/08/06 04:05:19;;;;;;;7.53;5.40;;;;;;;21.87;61.75;96809.50;6174286;22;20566;-72
2022/08/06 04:08:00;;;;;;;11.13;7.23;;;;;;;21.70;62.32;96802.34;6174126;22;20569;-71
2022/08/06 04:10:33;;;;;;;11.33;7.10;;;;;;;21.70;62.36;96804.97;6174140;22;20172;-70
2022/08/06 04:13:04;;;;;;;6.60;5.90;;;;;;;21.81;62.18;96802.16;6278147;22;20201;-71
2022/08/06 04:15:53;;;;;;;29.77;18.50;;;;;;;22.00;61.86;96802.09;6174328;22;20220;-71
2022/08/06 04:18:30;;;;;;;37.57;23.70;;;;;;;22.08;61.51;96798.72;6277666;22;20170;-70
2022/08/06 04:21:01;;;;;;;17.03;13.00;;;;;;;22.01;61.76;96805.56;6173349;22;20250;-71
2022/08/06 04:23:47;;;;;;;28.03;17.50;;;;;;;21.81;62.20;96794.22;6277243;22;20204;-73
2022/08/06 04:26:19;;;;;;;45.63;25.30;;;;;;;22.05;62.04;96806.94;6174563;22;20245;-70
2022/08/06 04:28:50;;;;;;;24.50;15.40;;;;;;;22.23;61.64;96813.94;6174407;22;20223;-70
2022/08/06 04:31:25;;;;;;;27.87;18.10;;;;;;;22.79;60.41;96812.91;6175457;22;20172;-71
2022/08/06 04:34:15;;;;;;;22.83;15.07;;;;;;;23.19;59.37;96810.59;6279770;22;20235;-71
2022/08/06 04:36:44;;;;;;;38.70;20.30;;;;;;;22.86;59.45;96814.78;6279385;22;20196;-71
2022/08/06 04:39:21;;;;;;;8.30;6.57;;;;;;;22.91;59.42;96804.59;6182447;22;20167;-77
2022/08/06 04:42:03;;;;;;;18.53;12.50;;;;;;;22.82;59.98;96807.31;6175347;22;20203;-77
2022/08/06 04:44:35;;;;;;;10.63;7.47;;;;;;;22.67;60.17;96807.00;6278444;22;20256;-76
2022/08/06 04:47:11;;;;;;;11.80;7.27;;;;;;;22.70;60.61;96819.06;6174657;22;20173;-74
2022/08/06 04:49:41;;;;;;;8.20;7.33;;;;;;;22.69;60.67;96812.94;6174360;22;20485;-74
2022/08/06 04:52:29;;;;;;;6.90;6.20;;;;;;;22.65;60.95;96815.06;6252219;22;20222;-75
2022/08/06 04:55:12;;;;;;;6.67;5.57;;;;;;;22.76;60.87;96819.31;6173497;22;20209;-77
2022/08/06 04:57:50;;;;;;;8.40;6.50;;;;;;;22.93;60.37;96809.72;6266847;22;20178;-77
2022/08/06 05:00:34;;;;;;;7.30;6.47;;;;;;;22.80;60.54;96815.38;6174038;22;20238;-69
2022/08/06 05:03:21;;;;;;;6.20;5.50;;;;;;;22.92;60.42;96814.16;6276893;22;20174;-73
2022/08/06 05:06:19;;;;;;;6.77;6.17;;;;;;;23.15;59.17;96812.72;6173527;22;20182;-73
2022/08/06 05:08:51;;;;;;;6.60;5.20;;;;;;;23.63;58.33;96814.09;6173927;22;20198;-75
2022/08/06 05:11:24;;;;;;;10.23;6.17;;;;;;;23.97;57.81;96817.56;6172922;22;20737;-75
2022/08/06 05:13:58;;;;;;;9.03;5.57;;;;;;;24.25;57.13;96827.81;6276060;22;20661;-75
2022/08/06 05:16:27;;;;;;;8.77;6.50;;;;;;;24.58;56.01;96833.25;6172989;22;20172;-75
2022/08/06 05:19:00;;;;;;;10.77;6.83;;;;;;;24.58;56.32;96814.72;6173943;22;20217;-73
2022/08/06 05:21:49;;;;;;;9.13;6.30;;;;;;;24.52;55.85;96823.31;6259060;22;20280;-72
2022/08/06 05:24:36;;;;;;;7.63;6.20;;;;;;;24.61;55.66;96830.25;6258511;22;20207;-76
2022/08/06 05:27:24;;;;;;;8.83;5.20;;;;;;;24.26;55.49;96823.38;6277148;22;20243;-76
2022/08/06 05:30:14;;;;;;;8.70;5.93;;;;;;;24.47;54.77;96828.22;6173587;22;20165;-77
2022/08/06 05:32:46;;;;;;;9.93;6.03;;;;;;;23.73;55.20;96720.44;6174176;22;20175;-75
2022/08/06 05:35:20;;;;;;;6.43;5.10;;;;;;;24.49;55.21;96828.91;6174532;23;20222;-71
2022/08/06 05:37:48;;;;;;;7.77;5.67;;;;;;;24.42;55.29;96838.50;6174002;22;20273;-70
2022/08/06 05:40:34;;;;;;;9.40;6.60;;;;;;;24.16;55.93;96831.44;6175288;22;20171;-70
2022/08/06 05:43:20;;;;;;;8.30;5.77;;;;;;;24.29;55.75;96832.81;6175230;22;20252;-73
2022/08/06 05:45:52;;;;;;;5.67;5.13;;;;;;;24.33;55.03;96826.22;6175088;22;20272;-76
2022/08/06 05:48:22;;;;;;;5.93;5.03;;;;;;;24.37;55.18;96824.91;6279165;22;20679;-70
2022/08/06 05:51:13;;;;;;;6.60;5.90;;;;;;;24.43;55.33;96818.97;6254674;22;20176;-70
2022/08/06 05:53:45;;;;;;;7.10;5.40;;;;;;;24.81;54.87;96818.44;6174959;22;20303;-71
2022/08/06 05:56:42;;;;;;;10.27;5.40;;;;;;;25.20;53.98;96823.94;6257517;22;20169;-71
2022/08/06 05:59:19;;;;;;;8.17;5.80;;;;;;;25.35;54.07;96820.44;6174274;22;20169;-69
2022/08/06 06:02:07;;;;;;;7.23;5.77;;;;;;;25.30;53.15;96809.53;6260406;22;20208;-70
2022/08/06 06:04:36;;;;;;;10.20;6.10;;;;;;;25.88;51.83;96819.06;6174399;22;20170;-72
2022/08/06 06:07:05;;;;;;;6.47;5.47;;;;;;;26.21;51.33;96812.69;6173480;22;20176;-71
2022/08/06 06:09:35;;;;;;;7.17;5.80;;;;;;;26.41;50.52;96822.72;6277759;22;20191;-70
2022/08/06 06:12:22;;;;;;;10.10;6.07;;;;;;;26.79;49.41;96812.25;6174066;22;20272;-71
2022/08/06 06:15:01;;;;;;;7.07;5.53;;;;;;;26.78;49.45;96822.06;6173995;22;20666;-74
2022/08/06 06:18:21;;;;;;;6.80;6.10;;;;;;;26.85;48.90;96820.38;6173249;22;20178;-70
2022/08/06 06:21:12;;;;;;;9.87;6.00;;;;;;;27.05;48.84;96826.84;6172711;22;20174;-73
2022/08/06 06:23:52;;;;;;;7.77;6.60;;;;;;;27.31;48.25;96826.47;6174540;22;20166;-74
2022/08/06 06:26:43;;;;;;;9.77;6.13;;;;;;;27.49;47.59;96818.22;6171977;22;20174;-70
2022/08/06 06:29:27;;;;;;;8.63;6.93;;;;;;;27.76;47.45;96815.78;6173101;22;20532;-71
2022/08/06 06:32:54;;;;;;;6.00;5.40;;;;;;;27.68;47.69;96825.66;6277809;22;20614;-71
2022/08/06 06:35:32;;;;;;;8.20;6.23;;;;;;;28.12;46.53;96807.94;6173422;22;20191;-71
2022/08/06 06:38:09;;;;;;;15.73;8.53;;;;;;;28.35;45.74;96821.97;6173996;22;20178;-71
2022/08/06 06:40:43;;;;;;;11.67;7.67;;;;;;;28.52;46.27;96803.94;6174506;22;20163;-72
2022/08/06 06:43:33;;;;;;;6.50;5.90;;;;;;;28.80;44.85;96800.41;6304093;22;20167;-71
2022/08/06 06:46:27;;;;;;;7.10;5.57;;;;;;;28.68;45.03;96798.41;6174224;22;20178;-71
2022/08/06 06:49:12;;;;;;;7.30;5.77;;;;;;;28.71;45.08;96796.19;6278691;22;20175;-71
2022/08/06 06:52:07;;;;;;;10.07;5.90;;;;;;;28.89;44.77;96788.59;6174059;22;20170;-72
2022/08/06 06:54:40;;;;;;;7.70;6.03;;;;;;;29.26;43.98;96787.56;6275629;22;20830;-73
2022/08/06 06:57:12;;;;;;;9.37;6.63;;;;;;;29.15;45.09;96788.06;6173806;22;20167;-72
2022/08/06 06:59:47;;;;;;;9.00;7.07;;;;;;;29.28;45.10;96788.19;6277525;22;20171;-72
2022/08/06 07:02:40;;;;;;;9.83;7.07;;;;;;;29.63;44.22;96781.06;6174013;22;20198;-71
2022/08/06 07:05:09;;;;;;;8.90;6.63;;;;;;;29.81;43.95;96761.91;6173629;22;20166;-74
2022/08/06 07:07:39;;;;;;;8.63;7.10;;;;;;;29.94;43.77;96781.50;6251488;22;20214;-72
2022/08/06 07:10:18;;;;;;;7.20;6.47;;;;;;;29.93;43.45;96787.03;6268504;22;20177;-72
2022/08/06 07:12:47;;;;;;;7.63;6.87;;;;;;;29.89;42.83;96791.09;6276336;22;20231;-73
2022/08/06 07:15:21;;;;;;;9.97;8.03;;;;;;;30.09;43.04;96782.19;6173738;22;20202;-72
2022/08/06 07:17:51;;;;;;;8.63;6.07;;;;;;;30.09;42.49;96770.69;6172678;22;20256;-72
2022/08/06 07:20:31;;;;;;;6.67;6.03;;;;;;;29.94;42.24;96757.47;6277376;22;20224;-72
2022/08/06 07:23:07;;;;;;;11.53;7.00;;;;;;;30.14;42.53;96771.75;6173705;22;20204;-74
2022/08/06 07:25:55;;;;;;;7.13;5.53;;;;;;;30.42;41.85;96774.34;6173268;22;20170;-72
2022/08/06 07:28:27;;;;;;;7.13;6.43;;;;;;;30.35;41.16;96771.69;6173940;22;20236;-72
2022/08/06 07:31:01;;;;;;;7.93;5.73;;;;;;;30.34;41.68;96769.19;6173811;22;20185;-72
2022/08/06 07:33:37;;;;;;;6.17;5.57;;;;;;;29.98;42.48;96764.06;6173149;22;20319;-72
2022/08/06 07:36:37;;;;;;;10.43;6.57;;;;;;;29.72;42.45;96753.19;6172979;22;20186;-73
2022/08/06 07:39:10;;;;;;;5.67;4.70;;;;;;;29.97;40.12;96757.06;6251409;22;20185;-72
2022/08/06 07:41:43;;;;;;;6.87;5.67;;;;;;;30.11;39.20;96758.78;6252627;22;20592;-74
2022/08/06 07:44:34;;;;;;;5.47;4.70;;;;;;;30.54;37.12;96760.22;6301716;22;20254;-72
2022/08/06 07:47:29;;;;;;;5.57;4.60;;;;;;;30.69;37.59;96761.88;6254993;22;20201;-71
2022/08/06 07:50:14;;;;;;;7.63;5.73;;;;;;;30.77;37.98;96756.38;6277389;22;20225;-71
2022/08/06 07:52:43;;;;;;;16.13;9.23;;;;;;;30.34;39.10;96761.16;6276757;22;20576;-72
2022/08/06 07:55:17;;;;;;;13.03;10.03;;;;;;;30.07;38.69;96756.72;6173865;22;20733;-77
2022/08/06 07:57:45;;;;;;;11.53;7.30;;;;;;;30.23;38.67;96762.53;6275102;22;20239;-74
2022/08/06 08:00:25;;;;;;;9.47;6.57;;;;;;;30.04;38.10;96760.59;6267081;22;20231;-71
2022/08/06 08:06:18;;;;;;;6.77;5.10;;;;;;;30.24;37.70;96766.84;6173121;22;20162;-72
2022/08/06 08:08:52;;;;;;;11.03;8.17;;;;;;;29.98;38.36;96758.72;6260970;22;20261;-74
2022/08/06 08:11:24;;;;;;;19.30;11.90;;;;;;;29.98;38.56;96764.06;6274177;22;20276;-71
2022/08/06 08:14:19;;;;;;;7.70;6.00;;;;;;;30.11;39.02;96757.97;6274665;22;20210;-70
2022/08/06 08:16:49;;;;;;;5.13;4.43;;;;;;;30.43;37.48;96757.31;6173909;22;20163;-74
2022/08/06 08:19:32;;;;;;;8.20;5.87;;;;;;;30.38;38.04;96771.25;6275091;22;20208;-75
2022/08/06 08:22:11;;;;;;;9.83;7.03;;;;;;;30.38;38.26;96760.56;6251935;22;20175;-74
2022/08/06 08:24:44;;;;;;;6.87;5.70;;;;;;;30.00;38.89;96766.53;6271959;22;20181;-72
2022/08/06 08:27:21;;;;;;;7.90;5.97;;;;;;;29.94;39.48;96768.16;6268847;22;20246;-70
2022/08/06 08:30:04;;;;;;;8.00;5.67;;;;;;;29.94;39.34;96760.13;6174014;22;20235;-71
2022/08/06 08:32:32;;;;;;;9.63;6.47;;;;;;;30.12;39.31;96752.41;6174000;22;20170;-69
2022/08/06 08:34:59;;;;;;;6.53;4.80;;;;;;;30.15;39.58;96765.38;6277670;22;20267;-71
2022/08/06 08:37:27;;;;;;;5.90;5.27;;;;;;;29.99;39.44;96770.22;6277988;22;20184;-71
2022/08/06 08:39:59;;;;;;;18.70;11.00;;;;;;;30.01;39.43;96769.00;6173890;22;20176;-75
2022/08/06 08:42:46;;;;;;;5.77;5.17;;;;;;;30.20;38.92;96756.75;6276435;22;20188;-73
2022/08/06 08:45:15;;;;;;;5.20;4.70;;;;;;;30.70;38.79;96763.56;6173897;22;20181;-72
2022/08/06 08:47:51;;;;;;;7.23;4.43;;;;;;;30.70;38.81;96756.34;6277513;22;20183;-73
2022/08/06 08:50:30;;;;;;;5.07;4.53;;;;;;;30.82;38.06;96761.94;6276605;22;20198;-75
2022/08/06 08:53:28;;;;;;;4.93;4.43;;;;;;;30.90;38.00;96759.91;6277197;22;20208;-73
2022/08/06 08:56:12;;;;;;;5.27;4.73;;;;;;;30.74;38.30;96772.81;6173184;22;20285;-74
2022/08/06 08:59:01;;;;;;;4.63;4.23;;;;;;;30.27;38.68;96774.50;6251112;22;20675;-74
2022/08/06 09:01:58;;;;;;;5.27;4.60;;;;;;;30.11;38.83;96757.97;6276695;22;20174;-78
2022/08/06 09:04:26;;;;;;;7.03;4.60;;;;;;;30.18;38.72;96764.97;6174387;22;20169;-75
2022/08/06 09:06:59;;;;;;;6.07;4.63;;;;;;;30.25;38.45;96755.13;6272247;22;20163;-73
2022/08/06 09:09:27;;;;;;;5.10;4.53;;;;;;;30.32;38.49;96758.69;6277228;22;20183;-71
2022/08/06 09:11:59;;;;;;;4.77;4.00;;;;;;;30.17;38.31;96746.47;6173687;22;20167;-72
2022/08/06 09:14:46;;;;;;;10.60;6.57;;;;;;;30.07;38.88;96752.19;6258915;22;20700;-71
2022/08/06 09:17:15;;;;;;;5.83;5.07;;;;;;;30.08;38.16;96748.50;6273412;22;20179;-74
2022/08/06 09:20:03;;;;;;;8.87;6.57;;;;;;;30.27;38.76;96753.13;6255163;22;20170;-73
2022/08/06 09:22:33;;;;;;;15.47;8.37;;;;;;;30.24;37.83;96742.81;6251425;22;20182;-70
2022/08/06 09:25:03;;;;;;;5.20;4.50;;;;;;;30.59;37.72;96740.06;6277619;22;20175;-73
2022/08/06 09:27:35;;;;;;;6.43;4.50;;;;;;;30.59;37.80;96748.09;6173410;22;20173;-70
2022/08/06 09:30:16;;;;;;;4.67;4.27;;;;;;;30.92;36.89;96732.97;6173776;22;20186;-71
2022/08/06 09:32:56;;;;;;;6.20;5.37;;;;;;;31.46;36.05;96746.19;6172762;22;20171;-73
2022/08/06 09:35:30;;;;;;;7.67;5.20;;;;;;;31.44;36.39;96740.22;6173422;22;20194;-69
2022/08/06 09:38:12;;;;;;;5.10;4.10;;;;;;;30.88;36.83;96745.09;6276377;22;20202;-73
2022/08/06 09:41:09;;;;;;;5.23;4.80;;;;;;;31.18;36.51;96741.81;6173162;22;20190;-70
2022/08/06 09:43:44;;;;;;;5.63;4.33;;;;;;;31.25;35.39;96752.53;6272528;22;20242;-71
2022/08/06 09:46:40;;;;;;;5.73;4.10;;;;;;;31.01;36.69;96742.44;6277120;22;20177;-71
2022/08/06 09:49:10;;;;;;;4.63;4.23;;;;;;;30.74;36.51;96740.72;6275808;22;20212;-74
2022/08/06 09:52:15;;;;;;;6.80;4.57;;;;;;;30.61;36.80;96738.84;6277493;22;20160;-72
2022/08/06 09:54:48;;;;;;;6.50;4.40;;;;;;;30.66;36.86;96741.75;6250545;22;20258;-73
2022/08/06 09:57:40;;;;;;;14.00;9.17;;;;;;;30.70;37.06;96737.63;6173422;22;20347;-71
2022/08/06 10:00:08;;;;;;;8.47;6.47;;;;;;;30.89;36.45;96736.06;6172700;22;20167;-73
2022/08/06 10:02:41;;;;;;;4.80;4.40;;;;;;;31.12;36.40;96741.81;6275989;22;20178;-73
2022/08/06 10:05:16;;;;;;;5.67;4.50;;;;;;;31.30;36.23;96734.81;6172938;22;20162;-72
2022/08/06 10:08:09;;;;;;;5.30;4.57;;;;;;;31.80;35.33;96730.69;6276145;22;20175;-72
2022/08/06 10:10:47;;;;;;;5.00;4.50;;;;;;;31.53;35.49;96729.06;6172366;22;20241;-72
2022/08/06 10:13:26;;;;;;;4.80;4.40;;;;;;;31.09;36.58;96732.38;6172733;22;20190;-72
2022/08/06 10:16:29;;;;;;;6.17;4.27;;;;;;;31.20;36.21;96722.91;6171853;22;20199;-72
2022/08/06 10:18:59;;;;;;;7.77;4.53;;;;;;;31.34;35.89;96740.63;6275790;22;20626;-72
2022/08/06 10:21:45;;;;;;;8.50;5.33;;;;;;;31.52;35.12;96743.50;6174200;22;20619;-74
2022/08/06 10:24:15;;;;;;;5.23;4.73;;;;;;;31.64;35.54;96725.75;6173916;22;20186;-73
2022/08/06 10:27:07;;;;;;;4.43;4.03;;;;;;;31.85;35.16;96698.72;6277964;22;20232;-70
2022/08/06 10:29:54;;;;;;;5.03;4.22;;;;;;;32.28;34.75;96703.53;6173554;22;20767;-71
2022/08/06 10:32:47;;;;;;;4.88;4.05;;;;;;;32.24;34.51;96710.34;6276879;22;20241;-73
2022/08/06 10:35:16;;;;;;;4.55;4.15;;;;;;;31.51;35.49;96709.72;6173876;22;20604;-71
2022/08/06 10:37:51;;;;;;;5.15;4.57;;;;;;;31.42;35.64;96710.97;6275772;22;20173;-75
2022/08/06 10:40:39;;;;;;;4.90;4.40;;;;;;;31.24;35.86;96708.09;6175439;22;20212;-70
2022/08/06 10:44:00;;;;;;;4.77;4.30;;;;;;;31.06;36.12;96707.84;6178202;22;20193;-76
2022/08/06 10:46:42;;;;;;;4.83;4.27;;;;;;;31.18;36.19;96708.91;6276335;22;20171;-76
2022/08/06 10:49:11;;;;;;;5.77;4.33;;;;;;;31.48;35.08;96709.31;6174316;22;20158;-75
2022/08/06 10:51:58;;;;;;;9.57;6.10;;;;;;;31.78;34.55;96697.13;6277471;22;20707;-75
2022/08/06 10:54:30;;;;;;;9.27;5.50;;;;;;;31.80;34.29;96700.41;6173707;22;20194;-75
2022/08/06 10:56:58;;;;;;;5.43;4.93;;;;;;;31.85;34.61;96696.06;6174106;23;20178;-75
2022/08/06 10:59:31;;;;;;;4.38;3.65;;;;;;;32.06;34.10;96693.13;6277296;22;20179;-76
2022/08/06 11:02:32;;;;;;;6.07;4.20;;;;;;;32.14;33.91;96688.53;6173753;22;20562;-76
2022/08/06 11:05:04;;;;;;;5.80;4.07;;;;;;;31.56;33.81;96685.81;6173771;22;20170;-75
2022/08/06 11:08:08;;;;;;;6.00;4.60;;;;;;;31.50;33.50;96696.53;6174001;22;20167;-75
2022/08/06 11:10:59;;;;;;;7.70;5.35;;;;;;;31.27;34.79;96697.78;6174025;22;20653;-73
2022/08/06 11:13:36;;;;;;;10.87;7.00;;;;;;;31.17;35.04;96680.50;6303042;22;20258;-73
2022/08/06 11:16:24;;;;;;;8.13;5.57;;;;;;;31.60;34.59;96684.38;6276815;22;20206;-73
2022/08/06 11:19:05;;;;;;;4.70;4.30;;;;;;;31.66;34.83;96674.66;6173897;22;20166;-71
2022/08/06 11:21:39;;;;;;;7.45;4.78;;;;;;;31.89;34.66;96667.81;6173848;22;20182;-72
2022/08/06 11:24:26;;;;;;;4.87;4.37;;;;;;;31.85;34.38;96689.88;6276818;22;20179;-75
2022/08/06 11:26:55;;;;;;;4.83;4.27;;;;;;;31.65;35.05;96673.88;6173578;22;20167;-74
2022/08/06 11:29:28;;;;;;;5.03;4.60;;;;;;;31.83;34.49;96660.63;6173380;23;20202;-74
2022/08/06 11:32:42;;;;;;;5.20;4.20;;;;;;;32.03;33.65;96685.50;6174393;22;20227;-74
2022/08/06 11:35:32;;;;;;;4.80;4.10;;;;;;;31.95;33.81;96675.03;6273412;22;20256;-72
2022/08/06 11:38:35;;;;;;;4.55;3.97;;;;;;;32.19;33.50;96664.63;6173431;22;20166;-75
2022/08/06 11:41:08;;;;;;;5.35;4.05;;;;;;;32.32;32.09;96672.56;6276752;22;20192;-73
2022/08/06 11:43:48;;;;;;;14.65;7.85;;;;;;;32.97;31.93;96664.13;6173947;22;20208;-72
2022/08/06 11:46:37;;;;;;;5.40;4.03;;;;;;;32.80;32.72;96669.22;6173953;22;20166;-74
2022/08/06 11:49:16;;;;;;;4.63;4.22;;;;;;;32.68;32.43;96670.13;6174203;22;20189;-72
2022/08/06 11:51:48;;;;;;;16.75;9.00;;;;;;;32.77;32.18;96663.44;6172609;22;20170;-72
2022/08/06 11:54:43;;;;;;;11.07;7.22;;;;;;;32.59;33.17;96666.88;6172387;22;20205;-74
2022/08/06 11:57:13;;;;;;;5.07;4.38;;;;;;;32.37;33.04;96686.16;6276923;22;20167;-71
2022/08/06 12:00:05;;;;;;;5.93;5.28;;;;;;;31.88;34.72;96668.81;6173378;22;20191;-72
2022/08/06 12:02:49;;;;;;;6.60;4.97;;;;;;;31.82;34.29;96664.31;6173996;22;20701;-72
2022/08/06 12:05:21;;;;;;;10.63;6.60;;;;;;;31.76;35.24;96675.88;6172515;22;20173;-74
2022/08/06 12:08:11;;;;;;;6.30;4.50;;;;;;;31.81;34.81;96673.41;6173773;22;20189;-76
2022/08/06 12:11:33;;;;;;;5.13;4.33;;;;;;;31.64;35.26;96664.16;6277308;22;20171;-76
2022/08/06 12:14:03;;;;;;;5.77;4.83;;;;;;;31.96;34.93;96660.56;6174491;22;20307;-72
2022/08/06 12:16:51;;;;;;;4.90;4.40;;;;;;;32.30;33.80;96637.13;6173449;22;20681;-71
2022/08/06 12:19:21;;;;;;;4.90;4.38;;;;;;;32.59;33.51;96648.09;6173876;22;20500;-73
2022/08/06 12:21:53;;;;;;;6.35;4.72;;;;;;;32.45;35.15;96661.78;6173531;22;20166;-73
2022/08/06 12:24:31;;;;;;;4.88;4.35;;;;;;;32.12;34.86;96675.38;6176297;22;20308;-71
2022/08/06 12:27:20;;;;;;;4.45;4.05;;;;;;;31.52;35.88;96657.81;6256278;22;20248;-74
2022/08/06 12:29:57;;;;;;;5.55;4.95;;;;;;;31.67;35.89;96677.16;6173587;22;20167;-72
2022/08/06 12:32:28;;;;;;;4.93;4.43;;;;;;;31.58;35.36;96658.81;6174211;22;20193;-74
2022/08/06 12:34:59;;;;;;;4.90;4.03;;;;;;;31.65;35.66;96665.00;6174456;22;20170;-74